createdAt,value
2019-05-13T00:01:31.422Z,5.87
2019-05-13T00:03:58.163Z,5.87
2019-05-13T00:06:24.951Z,5.85
2019-05-13T00:08:54.197Z,5.75
2019-05-13T00:11:20.271Z,5.78
2019-05-13T00:13:47.151Z,5.82
2019-05-13T00:16:14.199Z,5.85
2019-05-13T00:18:41.019Z,5.89
2019-05-13T00:21:07.835Z,5.92
2019-05-13T00:23:34.576Z,5.96
2019-05-13T00:26:03.584Z,5.96
2019-05-13T00:28:29.995Z,5.95
2019-05-13T00:30:56.713Z,5.88
2019-05-13T00:33:24.378Z,5.88
2019-05-13T00:35:53.376Z,5.89
2019-05-13T00:38:19.898Z,5.89
2019-05-13T00:40:46.652Z,5.93
2019-05-13T00:43:14.299Z,5.97
2019-05-13T00:45:44.303Z,5.96
2019-05-13T00:48:10.980Z,5.93
2019-05-13T00:50:37.839Z,5.90
2019-05-13T00:53:04.680Z,5.93
2019-05-13T00:55:34.475Z,5.98
2019-05-13T00:58:00.863Z,5.98
2019-05-13T01:00:27.713Z,5.99
2019-05-13T01:02:54.448Z,5.91
2019-05-13T01:05:23.289Z,5.97
2019-05-13T01:07:49.785Z,5.96
2019-05-13T01:10:16.540Z,5.96
2019-05-13T01:12:44.061Z,5.99
2019-05-13T01:15:13.455Z,5.59
2019-05-13T01:17:40.574Z,5.57
2019-05-13T01:20:08.495Z,5.66
2019-05-13T01:22:35.222Z,5.73
2019-05-13T01:25:04.214Z,5.81
2019-05-13T01:27:32.917Z,5.81
2019-05-13T01:29:59.499Z,5.85
2019-05-13T01:32:26.298Z,5.91
2019-05-13T01:34:53.858Z,5.77
2019-05-13T01:37:20.779Z,5.70
2019-05-13T01:39:47.494Z,5.71
2019-05-13T01:42:14.298Z,5.73
2019-05-13T01:44:43.615Z,5.77
2019-05-13T01:47:09.580Z,5.83
2019-05-13T01:49:36.369Z,5.86
2019-05-13T01:52:04.049Z,5.82
2019-05-13T01:54:30.858Z,5.85
2019-05-13T01:56:57.659Z,5.88
2019-05-13T01:59:24.440Z,5.81
2019-05-13T02:01:51.180Z,5.67
2019-05-13T02:04:18.017Z,5.64
2019-05-13T02:06:44.769Z,5.72
2019-05-13T02:09:11.531Z,5.78
2019-05-13T02:11:38.307Z,5.75
2019-05-13T02:14:05.596Z,5.75
2019-05-13T02:16:33.856Z,5.74
2019-05-13T02:19:00.859Z,5.77
2019-05-13T02:21:27.694Z,5.77
2019-05-13T02:23:54.457Z,5.77
2019-05-13T02:26:21.290Z,5.79
2019-05-13T02:28:48.004Z,5.78
2019-05-13T02:31:22.990Z,5.73
2019-05-13T02:33:43.334Z,5.78
2019-05-13T02:36:13.202Z,5.73
2019-05-13T02:38:38.627Z,5.69
2019-05-13T02:41:05.463Z,5.69
2019-05-13T02:43:33.393Z,5.69
2019-05-13T02:46:04.233Z,5.72
2019-05-13T02:48:32.465Z,5.75
2019-05-13T02:50:58.130Z,5.72
2019-05-13T02:53:24.909Z,5.63
2019-05-13T02:55:52.742Z,5.64
2019-05-13T02:58:23.628Z,5.68
2019-05-13T03:00:48.094Z,5.71
2019-05-13T03:03:14.982Z,5.61
2019-05-13T03:05:42.865Z,5.67
2019-05-13T03:08:12.694Z,5.66
2019-05-13T03:10:38.374Z,5.66
2019-05-13T03:13:05.080Z,5.58
2019-05-13T03:15:32.670Z,5.57
2019-05-13T03:18:03.203Z,5.58
2019-05-13T03:20:28.556Z,5.58
2019-05-13T03:22:55.265Z,5.52
2019-05-13T03:25:23.010Z,5.53
2019-05-13T03:27:53.008Z,5.40
2019-05-13T03:30:18.487Z,5.37
2019-05-13T03:32:52.725Z,5.34
2019-05-13T03:35:16.567Z,5.41
2019-05-13T03:37:42.667Z,5.53
2019-05-13T03:40:13.115Z,5.57
2019-05-13T03:42:42.548Z,5.41
2019-05-13T03:45:09.544Z,5.50
2019-05-13T03:47:37.835Z,5.44
2019-05-13T03:50:05.703Z,5.46
2019-05-13T03:52:33.686Z,5.51
2019-05-13T03:55:03.186Z,5.49
2019-05-13T03:57:33.428Z,5.54
2019-05-13T03:59:58.385Z,5.56
2019-05-13T04:02:25.751Z,5.54
2019-05-13T04:04:53.293Z,5.54
2019-05-13T04:07:23.536Z,5.55
2019-05-13T04:09:48.770Z,5.47
2019-05-13T04:12:15.537Z,5.41
2019-05-13T04:14:42.654Z,5.43
2019-05-13T04:17:12.364Z,5.30
2019-05-13T04:19:38.214Z,5.33
2019-05-13T04:22:05.038Z,5.40
2019-05-13T04:24:33.293Z,5.51
2019-05-13T04:27:02.821Z,5.61
2019-05-13T04:29:32.450Z,5.70
2019-05-13T04:31:57.955Z,5.75
2019-05-13T04:34:25.102Z,5.75
2019-05-13T04:36:52.092Z,5.79
2019-05-13T04:39:38.793Z,5.81
2019-05-13T04:41:47.773Z,5.86
2019-05-13T04:44:14.506Z,5.92
2019-05-13T04:46:43.439Z,5.95
2019-05-13T04:49:12.546Z,5.97
2019-05-13T04:51:41.823Z,5.95
2019-05-13T04:54:07.272Z,5.87
2019-05-13T04:56:34.040Z,5.89
2019-05-13T04:59:03.023Z,5.91
2019-05-13T05:01:52.297Z,5.90
2019-05-13T05:04:34.912Z,5.93
2019-05-13T05:07:23.699Z,5.93
2019-05-13T05:10:33.734Z,5.92
2019-05-13T05:13:23.259Z,5.93
2019-05-13T05:16:17.923Z,5.88
2019-05-13T05:19:38.588Z,5.90
2019-05-13T05:22:22.545Z,5.87
2019-05-13T05:24:57.531Z,5.84
2019-05-13T05:27:38.610Z,5.88
2019-05-13T05:30:22.791Z,5.96
2019-05-13T05:33:43.743Z,5.97
2019-05-13T05:36:41.613Z,5.85
2019-05-13T05:39:22.892Z,5.89
2019-05-13T05:41:54.540Z,5.95
2019-05-13T05:44:25.387Z,6.04
2019-05-13T05:46:56.641Z,6.16
2019-05-13T05:49:24.788Z,6.17
2019-05-13T05:52:05.679Z,6.23
2019-05-13T05:54:37.772Z,6.24
2019-05-13T05:57:06.083Z,6.31
2019-05-13T05:59:34.615Z,6.38
2019-05-13T06:02:02.211Z,6.42
2019-05-13T06:04:32.164Z,6.42
2019-05-13T06:06:58.837Z,6.51
2019-05-13T06:09:25.545Z,6.51
2019-05-13T06:11:55.373Z,6.62
2019-05-13T06:14:22.797Z,6.64
2019-05-13T06:16:51.899Z,6.70
2019-05-13T06:19:22.364Z,6.69
2019-05-13T06:21:51.189Z,6.77
2019-05-13T06:24:17.300Z,6.79
2019-05-13T06:26:44.142Z,6.85
2019-05-13T06:29:11.873Z,6.86
2019-05-13T06:31:38.604Z,6.91
2019-05-13T06:34:05.333Z,6.99
2019-05-13T06:36:32.240Z,7.00
2019-05-13T06:38:58.988Z,7.00
2019-05-13T06:41:25.713Z,7.03
2019-05-13T06:43:52.563Z,7.06
2019-05-13T06:46:21.691Z,7.03
2019-05-13T06:48:47.821Z,6.98
2019-05-13T06:51:14.635Z,6.95
2019-05-13T06:53:41.587Z,6.98
2019-05-13T06:56:08.273Z,7.03
2019-05-13T06:58:35.103Z,6.95
2019-05-13T07:01:03.655Z,6.97
2019-05-13T07:03:32.300Z,7.02
2019-05-13T07:06:01.645Z,7.04
2019-05-13T07:08:27.851Z,7.10
2019-05-13T07:10:54.563Z,7.14
2019-05-13T07:13:21.936Z,7.03
2019-05-13T07:15:48.836Z,7.11
2019-05-13T07:18:16.373Z,7.13
2019-05-13T07:20:43.500Z,7.19
2019-05-13T07:23:12.131Z,7.19
2019-05-13T07:25:38.783Z,7.22
2019-05-13T07:28:05.578Z,7.26
2019-05-13T07:30:43.555Z,7.33
2019-05-13T07:33:12.547Z,7.40
2019-05-13T07:35:44.254Z,7.23
2019-05-13T07:38:11.506Z,7.30
2019-05-13T07:40:37.688Z,7.32
2019-05-13T07:43:04.439Z,7.29
2019-05-13T07:45:31.672Z,7.37
2019-05-13T07:47:58.489Z,7.49
2019-05-13T07:50:25.212Z,7.58
2019-05-13T07:52:51.988Z,7.67
2019-05-13T07:55:18.769Z,7.75
2019-05-13T07:57:45.509Z,7.87
2019-05-13T08:00:12.655Z,8.02
2019-05-13T08:02:41.728Z,8.08
2019-05-13T08:05:08.294Z,8.11
2019-05-13T08:07:35.050Z,8.15
2019-05-13T08:10:03.701Z,8.22
2019-05-13T08:12:31.886Z,8.25
2019-05-13T08:14:58.806Z,8.33
2019-05-13T08:17:25.605Z,8.43
2019-05-13T08:19:52.353Z,8.47
2019-05-13T08:22:21.847Z,8.48
2019-05-13T08:24:51.051Z,8.46
2019-05-13T08:27:21.607Z,8.54
2019-05-13T08:29:44.807Z,8.53
2019-05-13T08:32:11.615Z,8.54
2019-05-13T08:34:38.460Z,8.65
2019-05-13T08:37:05.196Z,8.73
2019-05-13T08:39:35.953Z,8.80
2019-05-13T08:42:12.895Z,8.91
2019-05-13T08:44:29.071Z,8.92
2019-05-13T08:46:55.847Z,9.10
2019-05-13T08:49:22.592Z,9.16
2019-05-13T08:51:52.491Z,9.36
2019-05-13T08:54:18.110Z,9.57
2019-05-13T08:56:44.897Z,9.69
2019-05-13T08:59:11.709Z,9.77
2019-05-13T09:01:38.533Z,9.88
2019-05-13T09:04:05.386Z,9.99
2019-05-13T09:06:32.854Z,10.10
2019-05-13T09:09:01.769Z,10.21
2019-05-13T09:11:28.353Z,10.28
2019-05-13T09:13:55.123Z,10.32
2019-05-13T09:16:21.929Z,10.26
2019-05-13T09:18:48.672Z,10.27
2019-05-13T09:21:16.034Z,10.34
2019-05-13T09:23:42.839Z,10.46
2019-05-13T09:26:11.671Z,10.50
2019-05-13T09:28:38.143Z,10.49
2019-05-13T09:31:04.949Z,10.42
2019-05-13T09:33:32.669Z,10.44
2019-05-13T09:36:02.024Z,10.44
2019-05-13T09:38:28.265Z,10.49
2019-05-13T09:40:55.039Z,10.55
2019-05-13T09:43:22.298Z,10.57
2019-05-13T09:45:49.214Z,10.57
2019-05-13T09:48:15.961Z,10.65
2019-05-13T09:50:42.684Z,10.68
2019-05-13T09:53:11.504Z,10.77
2019-05-13T09:55:38.122Z,10.84
2019-05-13T09:58:04.833Z,10.83
2019-05-13T10:00:32.357Z,10.87
2019-05-13T10:02:59.263Z,10.91
2019-05-13T10:05:26.027Z,10.94
2019-05-13T10:07:52.838Z,10.95
2019-05-13T10:10:22.126Z,11.02
2019-05-13T10:13:07.410Z,10.90
2019-05-13T10:15:17.043Z,10.82
2019-05-13T10:17:43.909Z,10.85
2019-05-13T10:20:12.145Z,10.80
2019-05-13T10:22:41.711Z,10.97
2019-05-13T10:25:12.757Z,11.13
2019-05-13T10:27:41.852Z,11.21
2019-05-13T10:30:13.001Z,11.22
2019-05-13T10:32:42.589Z,11.22
2019-05-13T10:35:10.509Z,11.26
2019-05-13T10:37:37.449Z,11.32
2019-05-13T10:40:04.908Z,11.42
2019-05-13T10:42:31.911Z,11.42
2019-05-13T10:44:58.669Z,11.58
2019-05-13T10:47:25.437Z,11.78
2019-05-13T10:49:54.167Z,11.98
2019-05-13T10:52:22.921Z,12.16
2019-05-13T10:54:49.489Z,12.37
2019-05-13T10:57:16.264Z,12.61
2019-05-13T10:59:43.142Z,12.75
2019-05-13T11:02:13.099Z,12.95
2019-05-13T11:04:38.802Z,13.00
2019-05-13T11:07:05.705Z,13.04
2019-05-13T11:09:32.760Z,13.14
2019-05-13T11:12:02.025Z,13.14
2019-05-13T11:14:28.558Z,13.16
2019-05-13T11:16:55.300Z,13.11
2019-05-13T11:19:23.235Z,13.06
2019-05-13T11:21:50.908Z,13.10
2019-05-13T11:24:18.064Z,13.23
2019-05-13T11:26:45.202Z,13.42
2019-05-13T11:29:12.341Z,13.58
2019-05-13T11:31:39.184Z,13.78
2019-05-13T11:34:06.041Z,13.96
2019-05-13T11:36:33.689Z,14.02
2019-05-13T11:39:02.962Z,14.03
2019-05-13T11:41:29.197Z,14.10
2019-05-13T11:44:11.897Z,14.11
2019-05-13T11:46:24.678Z,13.93
2019-05-13T11:48:52.082Z,13.81
2019-05-13T11:51:19.502Z,13.65
2019-05-13T11:53:46.352Z,13.53
2019-05-13T11:56:13.073Z,13.49
2019-05-13T11:58:43.126Z,13.46
2019-05-13T12:01:08.758Z,13.47
2019-05-13T12:03:35.495Z,13.51
2019-05-13T12:06:02.926Z,13.48
2019-05-13T12:08:33.101Z,13.42
2019-05-13T12:10:58.349Z,13.46
2019-05-13T12:13:25.152Z,13.47
2019-05-13T12:15:54.392Z,13.46
2019-05-13T12:18:23.506Z,13.45
2019-05-13T12:20:53.521Z,13.38
2019-05-13T12:23:18.197Z,13.41
2019-05-13T12:25:44.938Z,13.30
2019-05-13T12:28:11.866Z,13.24
2019-05-13T12:30:38.610Z,13.32
2019-05-13T12:33:07.379Z,13.25
2019-05-13T12:35:34.137Z,13.08
2019-05-13T12:38:00.900Z,13.14
2019-05-13T12:40:27.627Z,13.20
2019-05-13T12:42:54.483Z,13.19
2019-05-13T12:45:22.483Z,13.14
2019-05-13T12:47:49.421Z,13.09
2019-05-13T12:50:17.381Z,13.06
2019-05-13T12:52:44.134Z,13.03
2019-05-13T12:55:14.110Z,13.00
2019-05-13T12:57:39.768Z,12.89
2019-05-13T13:00:07.310Z,12.72
2019-05-13T13:02:34.042Z,12.74
2019-05-13T13:05:13.370Z,12.73
2019-05-13T13:07:32.502Z,12.72
2019-05-13T13:09:58.055Z,12.64
2019-05-13T13:12:34.232Z,12.51
2019-05-13T13:14:54.527Z,12.39
2019-05-13T13:17:41.535Z,12.25
2019-05-13T13:20:10.875Z,11.95
2019-05-13T13:22:38.288Z,11.83
2019-05-13T13:25:06.787Z,11.80
2019-05-13T13:28:01.953Z,11.59
2019-05-13T13:30:08.463Z,11.47
2019-05-13T13:32:33.394Z,11.37
2019-05-13T13:35:03.435Z,11.14
2019-05-13T13:37:28.814Z,10.96
2019-05-13T13:39:55.610Z,11.01
2019-05-13T13:42:22.335Z,11.03
2019-05-13T13:44:53.362Z,10.95
2019-05-13T13:47:17.951Z,10.81
2019-05-13T13:49:44.697Z,10.54
2019-05-13T13:52:16.151Z,10.59
2019-05-13T13:54:44.156Z,10.55
2019-05-13T13:57:08.667Z,10.66
2019-05-13T13:59:35.979Z,10.74
2019-05-13T14:02:05.459Z,10.77
2019-05-13T14:04:31.673Z,10.74
2019-05-13T14:09:27.123Z,10.64
2019-05-13T14:11:53.872Z,10.54
2019-05-13T14:14:22.447Z,10.55
2019-05-13T14:16:51.626Z,10.59
2019-05-13T14:19:17.753Z,10.69
2019-05-13T14:21:44.472Z,10.78
2019-05-13T14:24:12.106Z,10.72
2019-05-13T14:26:43.707Z,10.79
2019-05-13T14:29:08.195Z,10.81
2019-05-13T14:31:35.011Z,10.78
2019-05-13T14:34:03.645Z,10.77
2019-05-13T14:36:30.266Z,10.68
2019-05-13T14:38:58.026Z,10.70
2019-05-13T14:41:24.774Z,10.74
2019-05-13T14:43:51.899Z,10.76
2019-05-13T14:46:18.799Z,10.88
2019-05-13T14:48:45.578Z,10.95
2019-05-13T14:51:12.542Z,10.93
2019-05-13T14:53:41.508Z,10.91
2019-05-13T14:56:07.913Z,11.01
2019-05-13T14:58:34.652Z,10.96
2019-05-13T15:01:12.549Z,10.96
2019-05-13T15:03:32.392Z,10.86
2019-05-13T15:05:58.609Z,10.93
2019-05-13T15:08:26.026Z,11.01
2019-05-13T15:10:53.492Z,11.03
2019-05-13T15:13:20.325Z,10.97
2019-05-13T15:15:47.126Z,10.99
2019-05-13T15:18:13.919Z,10.97
2019-05-13T15:20:41.692Z,11.02
2019-05-13T15:23:08.802Z,11.04
2019-05-13T15:25:36.444Z,10.86
2019-05-13T15:28:03.202Z,10.85
2019-05-13T15:30:31.591Z,10.80
2019-05-13T15:32:58.428Z,10.71
2019-05-13T15:35:25.176Z,10.68
2019-05-13T15:37:53.162Z,10.71
2019-05-13T15:40:20.036Z,10.77
2019-05-13T15:42:51.346Z,10.86
2019-05-13T15:45:18.182Z,10.85
2019-05-13T15:47:45.158Z,10.86
2019-05-13T15:50:12.330Z,10.82
2019-05-13T15:52:39.501Z,10.90
2019-05-13T15:55:07.560Z,10.84
2019-05-13T15:57:34.293Z,10.83
2019-05-13T16:00:02.038Z,10.80
2019-05-13T16:02:31.235Z,10.73
2019-05-13T16:05:01.402Z,10.83
2019-05-13T16:07:26.070Z,10.80
2019-05-13T16:09:52.841Z,10.76
2019-05-13T16:12:21.315Z,10.75
2019-05-13T16:14:48.177Z,10.74
2019-05-13T16:17:14.942Z,10.80
2019-05-13T16:19:42.087Z,10.81
2019-05-13T16:22:11.661Z,10.77
2019-05-13T16:24:37.711Z,10.75
2019-05-13T16:27:04.450Z,10.65
2019-05-13T16:29:31.594Z,10.55
2019-05-13T16:32:01.515Z,10.55
2019-05-13T16:34:28.449Z,10.60
2019-05-13T16:36:57.848Z,10.51
2019-05-13T16:39:24.623Z,10.42
2019-05-13T16:41:51.762Z,10.31
2019-05-13T16:44:18.813Z,10.32
2019-05-13T16:46:45.541Z,10.31
2019-05-13T16:49:12.591Z,10.37
2019-05-13T16:51:39.380Z,10.39
2019-05-13T16:54:06.144Z,10.43
2019-05-13T16:56:33.599Z,10.51
2019-05-13T16:59:01.599Z,10.55
2019-05-13T17:01:28.547Z,10.55
2019-05-13T17:03:55.253Z,10.59
2019-05-13T17:06:23.362Z,10.55
2019-05-13T17:08:51.639Z,10.52
2019-05-13T17:11:18.695Z,10.45
2019-05-13T17:13:45.518Z,10.52
2019-05-13T17:16:12.252Z,10.57
2019-05-13T17:18:41.492Z,10.57
2019-05-13T17:21:13.410Z,10.57
2019-05-13T17:23:41.819Z,10.58
2019-05-13T17:26:08.718Z,10.50
2019-05-13T17:28:35.559Z,10.50
2019-05-13T17:31:02.370Z,10.49
2019-05-13T17:33:31.791Z,10.43
2019-05-13T17:35:58.732Z,10.40
2019-05-13T17:38:25.448Z,10.36
2019-05-13T17:40:53.115Z,10.30
2019-05-13T17:43:21.345Z,10.27
2019-05-13T17:45:48.253Z,10.21
2019-05-13T17:48:25.967Z,10.20
2019-05-13T17:50:43.577Z,10.16
2019-05-13T17:53:11.344Z,10.12
2019-05-13T17:55:38.403Z,10.02
2019-05-13T17:58:05.223Z,9.93
2019-05-13T18:00:32.326Z,9.98
2019-05-13T18:02:59.079Z,9.95
2019-05-13T18:05:25.900Z,9.92
2019-05-13T18:07:52.632Z,9.87
2019-05-13T18:10:19.443Z,9.82
2019-05-13T18:12:46.262Z,9.79
2019-05-13T18:15:13.143Z,9.81
2019-05-13T18:17:41.743Z,9.82
2019-05-13T18:20:08.601Z,9.81
2019-05-13T18:22:35.335Z,9.73
2019-05-13T18:25:02.723Z,9.68
2019-05-13T18:27:29.619Z,9.61
2019-05-13T18:29:56.361Z,9.60
2019-05-13T18:32:23.104Z,9.57
2019-05-13T18:34:49.911Z,9.60
2019-05-13T18:37:17.834Z,9.57
2019-05-13T18:39:44.893Z,9.57
2019-05-13T18:42:11.742Z,9.54
2019-05-13T18:44:38.798Z,9.46
2019-05-13T18:47:05.538Z,9.47
2019-05-13T18:49:34.156Z,9.46
2019-05-13T18:52:00.925Z,9.49
2019-05-13T18:54:27.662Z,9.46
2019-05-13T18:56:54.468Z,9.43
2019-05-13T18:59:21.497Z,9.37
2019-05-13T19:01:48.225Z,9.32
2019-05-13T19:04:15.046Z,9.31
2019-05-13T19:06:42.470Z,9.27
2019-05-13T19:09:11.195Z,9.21
2019-05-13T19:11:37.946Z,9.14
2019-05-13T19:14:04.687Z,9.13
2019-05-13T19:16:31.961Z,9.11
2019-05-13T19:19:11.618Z,9.04
2019-05-13T19:21:27.401Z,8.95
2019-05-13T19:23:54.169Z,8.90
2019-05-13T19:26:21.810Z,8.88
2019-05-13T19:28:51.447Z,8.87
2019-05-13T19:31:17.566Z,8.83
2019-05-13T19:33:44.372Z,8.80
2019-05-13T19:36:11.797Z,8.73
2019-05-13T19:38:38.723Z,8.71
2019-05-13T19:41:05.597Z,8.65
2019-05-13T19:43:32.349Z,8.60
2019-05-13T19:46:01.239Z,8.58
2019-05-13T19:48:27.688Z,8.54
2019-05-13T19:50:54.432Z,8.49
2019-05-13T19:53:21.186Z,8.46
2019-05-13T19:55:47.957Z,8.43
2019-05-13T19:58:14.702Z,8.41
2019-05-13T20:00:42.368Z,8.39
2019-05-13T20:03:11.744Z,8.36
2019-05-13T20:05:41.243Z,8.34
2019-05-13T20:08:07.415Z,8.30
2019-05-13T20:10:34.183Z,8.26
2019-05-13T20:13:01.877Z,8.21
2019-05-13T20:15:28.762Z,8.16
2019-05-13T20:17:55.564Z,8.12
2019-05-13T20:20:22.293Z,8.16
2019-05-13T20:22:51.626Z,8.15
2019-05-13T20:25:17.711Z,8.09
2019-05-13T20:27:44.495Z,8.06
2019-05-13T20:30:11.478Z,8.05
2019-05-13T20:32:38.445Z,8.02
2019-05-13T20:35:05.418Z,8.00
2019-05-13T20:37:32.524Z,7.96
2019-05-13T20:39:59.325Z,7.90
2019-05-13T20:42:27.861Z,7.83
2019-05-13T20:44:54.610Z,7.72
2019-05-13T20:47:21.491Z,7.64
2019-05-13T20:49:59.114Z,7.56
2019-05-13T20:52:16.739Z,7.46
2019-05-13T20:54:43.586Z,7.39
2019-05-13T20:57:10.317Z,7.33
2019-05-13T20:59:37.083Z,7.27
2019-05-13T21:02:03.863Z,7.23
2019-05-13T21:04:32.222Z,7.17
2019-05-13T21:06:59.149Z,7.12
2019-05-13T21:09:25.972Z,7.08
2019-05-13T21:11:52.718Z,7.04
2019-05-13T21:14:21.620Z,6.95
2019-05-13T21:16:48.070Z,6.93
2019-05-13T21:19:14.788Z,6.88
2019-05-13T21:21:41.693Z,6.81
2019-05-13T21:24:08.620Z,6.73
2019-05-13T21:26:35.349Z,6.69
2019-05-13T21:29:02.557Z,6.66
2019-05-13T21:31:29.327Z,6.61
2019-05-13T21:33:56.075Z,6.53
2019-05-13T21:36:22.842Z,6.48
2019-05-13T21:38:49.655Z,6.43
2019-05-13T21:41:16.394Z,6.40
2019-05-13T21:43:43.117Z,6.35
2019-05-13T21:46:11.897Z,6.26
2019-05-13T21:48:38.497Z,6.12
2019-05-13T21:51:05.228Z,6.13
2019-05-13T21:53:32.757Z,6.10
2019-05-13T21:56:02.102Z,6.03
2019-05-13T21:58:28.101Z,5.93
2019-05-13T22:00:56.994Z,5.85
2019-05-13T22:03:23.736Z,5.83
2019-05-13T22:05:51.549Z,5.79
2019-05-13T22:08:18.595Z,5.78
2019-05-13T22:10:45.328Z,5.77
2019-05-13T22:13:12.043Z,5.75
2019-05-13T22:15:38.831Z,5.70
2019-05-13T22:18:05.574Z,5.70
2019-05-13T22:20:46.633Z,5.66
2019-05-13T22:23:01.479Z,5.61
2019-05-13T22:25:28.266Z,5.56
2019-05-13T22:27:55.055Z,5.54
2019-05-13T22:30:21.835Z,5.48
2019-05-13T22:32:48.606Z,5.43
2019-05-13T22:35:15.323Z,5.47
2019-05-13T22:37:42.120Z,5.47
2019-05-13T22:40:11.350Z,5.47
2019-05-13T22:42:38.085Z,5.43
2019-05-13T22:45:04.978Z,5.37
2019-05-13T22:47:31.725Z,5.33
2019-05-13T22:49:58.482Z,5.30
2019-05-13T22:52:25.258Z,5.27
2019-05-13T22:54:52.035Z,5.23
2019-05-13T22:57:18.748Z,5.11
2019-05-13T22:59:45.535Z,5.06
2019-05-13T23:02:12.307Z,5.06
2019-05-13T23:04:39.012Z,5.07
2019-05-13T23:07:05.883Z,5.08
2019-05-13T23:09:32.615Z,5.03
2019-05-13T23:12:01.606Z,5.02
2019-05-13T23:14:27.939Z,5.04
2019-05-13T23:16:54.707Z,5.09
2019-05-13T23:19:21.815Z,5.09
2019-05-13T23:21:51.008Z,5.11
2019-05-13T23:24:17.249Z,5.13
2019-05-13T23:26:43.995Z,5.04
2019-05-13T23:29:10.878Z,5.06
2019-05-13T23:31:37.589Z,5.07
2019-05-13T23:34:04.317Z,5.14
2019-05-13T23:36:31.578Z,5.11
2019-05-13T23:38:58.550Z,5.14
2019-05-13T23:41:25.266Z,5.14
2019-05-13T23:43:52.041Z,5.15
2019-05-13T23:46:18.776Z,5.23
2019-05-13T23:48:45.497Z,5.22
2019-05-13T23:51:12.972Z,5.15
2019-05-13T23:53:41.650Z,5.17
2019-05-13T23:56:08.469Z,5.19
2019-05-13T23:58:35.342Z,5.18
